Time;durP1;ratioP1;P1;durP2;ratioP2;P2;SDS_P1;SDS_P2;PMS_P1;PMS_P2;Temp;Humidity;BMP_temperature;BMP_pressure;BME280_temperature;BME280_humidity;BME280_pressure;Samples;Min_cycle;Max_cycle;Signal;HPM_P1;HPM_P2
2021/03/21 00:00:43;;;;;;;33.25;19.00;;;;;;;2.21;100.00;101482.72;5081362;28;20063;-75
2021/03/21 00:03:08;;;;;;;34.95;20.92;;;;;;;2.25;100.00;101483.28;5076570;28;20522;-76
2021/03/21 00:05:34;;;;;;;32.15;19.98;;;;;;;2.13;100.00;101485.16;5101199;28;20051;-75
2021/03/21 00:08:05;;;;;;;33.00;21.52;;;;;;;2.21;100.00;101494.97;5104216;28;20039;-75
2021/03/21 00:10:32;;;;;;;111.23;49.87;;;;;;;2.24;100.00;101506.06;5100898;28;20035;-76
2021/03/21 00:12:58;;;;;;;181.27;73.22;;;;;;;2.22;100.00;101502.72;5084258;28;20136;-76
2021/03/21 00:15:24;;;;;;;180.65;73.10;;;;;;;2.22;100.00;101496.66;5093068;28;20114;-75
2021/03/21 00:17:50;;;;;;;113.70;50.15;;;;;;;2.27;100.00;101499.72;5097437;28;20028;-76
2021/03/21 00:20:17;;;;;;;47.08;24.40;;;;;;;2.18;100.00;101490.00;5086604;28;20496;-75
2021/03/21 00:22:43;;;;;;;31.00;20.25;;;;;;;2.14;100.00;101486.00;5077990;28;20043;-76
2021/03/21 00:25:10;;;;;;;32.45;20.10;;;;;;;2.15;100.00;101496.34;5089577;28;20118;-76
2021/03/21 00:27:36;;;;;;;25.45;18.80;;;;;;;2.17;100.00;101494.41;5089585;28;20036;-75
2021/03/21 00:30:05;;;;;;;26.77;18.02;;;;;;;2.18;100.00;101501.34;5090218;28;20454;-75
2021/03/21 00:32:31;;;;;;;26.20;18.70;;;;;;;2.21;100.00;101489.72;5099737;28;20034;-76
2021/03/21 00:34:56;;;;;;;28.92;18.48;;;;;;;2.18;100.00;101501.34;5085132;28;20111;-76
2021/03/21 00:37:21;;;;;;;42.10;24.73;;;;;;;2.19;100.00;101505.59;5083994;28;20024;-75
2021/03/21 00:39:47;;;;;;;32.92;19.33;;;;;;;2.23;100.00;101498.31;5086028;28;20024;-75
2021/03/21 00:42:12;;;;;;;34.47;20.42;;;;;;;2.25;100.00;101497.22;5083138;28;20051;-75
2021/03/21 00:44:37;;;;;;;24.63;18.33;;;;;;;2.16;100.00;101507.66;5086729;28;20059;-75
2021/03/21 00:47:03;;;;;;;29.48;19.95;;;;;;;2.21;100.00;101508.09;5084179;28;20115;-76
2021/03/21 00:49:29;;;;;;;31.38;20.70;;;;;;;2.15;100.00;101496.34;5080216;28;20366;-75
2021/03/21 00:51:54;;;;;;;28.88;20.38;;;;;;;2.16;100.00;101490.16;5088014;28;20097;-75
2021/03/21 00:54:19;;;;;;;29.38;20.38;;;;;;;2.11;100.00;101488.88;5100262;28;20027;-75
2021/03/21 00:56:45;;;;;;;25.77;18.73;;;;;;;2.08;100.00;101486.53;5103382;28;20136;-75
2021/03/21 00:59:10;;;;;;;26.73;19.60;;;;;;;2.08;100.00;101476.03;5103437;28;20465;-75
2021/03/21 01:01:36;;;;;;;25.25;19.02;;;;;;;2.05;100.00;101477.94;5103572;28;20522;-75
2021/03/21 01:04:02;;;;;;;33.60;21.05;;;;;;;2.06;100.00;101473.56;5089417;28;20044;-76
2021/03/21 01:06:28;;;;;;;28.77;19.95;;;;;;;2.05;100.00;101470.09;5091378;28;20039;-75
2021/03/21 01:08:56;;;;;;;28.02;18.77;;;;;;;2.09;100.00;101459.34;5102378;28;20028;-75
2021/03/21 01:11:34;;;;;;;29.83;19.38;;;;;;;2.02;100.00;101446.78;5103958;28;20043;-75
2021/03/21 01:14:01;;;;;;;25.02;17.00;;;;;;;2.03;100.00;101440.59;5101230;28;20035;-75
2021/03/21 01:16:29;;;;;;;27.17;18.25;;;;;;;1.99;100.00;101435.72;5102822;28;20035;-75
2021/03/21 01:18:55;;;;;;;25.38;18.23;;;;;;;2.00;100.00;101442.66;5076737;28;20024;-75
2021/03/21 01:21:27;;;;;;;23.67;17.10;;;;;;;2.00;100.00;101443.47;5085557;28;20461;-75
2021/03/21 01:23:52;;;;;;;28.10;18.63;;;;;;;2.01;100.00;101445.13;5083788;28;20536;-75
2021/03/21 01:26:21;;;;;;;27.00;17.88;;;;;;;2.09;100.00;101452.34;5084971;28;20070;-75
2021/03/21 01:28:48;;;;;;;24.65;16.90;;;;;;;2.04;100.00;101457.13;5106084;28;20122;-75
2021/03/21 01:31:18;;;;;;;29.23;18.23;;;;;;;2.08;100.00;101455.06;5104649;28;20024;-75
2021/03/21 01:33:43;;;;;;;31.33;19.50;;;;;;;2.05;100.00;101461.41;5091739;28;20468;-75
2021/03/21 01:36:13;;;;;;;28.55;18.95;;;;;;;1.98;100.00;101455.03;5084073;28;20022;-75
2021/03/21 01:38:38;;;;;;;24.52;16.77;;;;;;;2.04;100.00;101455.34;5100921;28;20530;-75
2021/03/21 01:41:06;;;;;;;21.83;16.63;;;;;;;2.01;100.00;101454.78;5104426;28;20119;-75
2021/03/21 01:43:38;;;;;;;25.70;17.88;;;;;;;2.05;100.00;101454.38;5104578;28;20034;-75
2021/03/21 01:46:05;;;;;;;25.30;17.77;;;;;;;2.08;100.00;101453.28;5081411;28;20042;-75
2021/03/21 01:48:45;;;;;;;22.33;17.77;;;;;;;2.04;100.00;101446.66;5092434;28;20088;-75
2021/03/21 01:51:33;;;;;;;34.22;20.90;;;;;;;2.06;100.00;101447.34;5103231;28;20031;-75
2021/03/21 01:54:02;;;;;;;26.55;17.52;;;;;;;2.02;100.00;101457.25;5089332;28;20443;-75
2021/03/21 01:56:31;;;;;;;21.40;15.93;;;;;;;2.00;100.00;101456.56;5087920;28;20031;-75
2021/03/21 01:59:07;;;;;;;24.63;16.92;;;;;;;2.07;100.00;101462.09;5103768;28;20032;-76
2021/03/21 02:01:32;;;;;;;23.98;17.65;;;;;;;1.98;100.00;101449.81;5096570;28;20059;-75
2021/03/21 02:03:58;;;;;;;23.60;17.23;;;;;;;1.98;100.00;101444.56;5096599;28;20120;-75
2021/03/21 02:06:26;;;;;;;24.45;16.02;;;;;;;1.97;100.00;101438.50;5090907;28;20024;-75
2021/03/21 02:09:07;;;;;;;23.80;17.27;;;;;;;2.01;100.00;101450.38;5101369;28;20101;-75
2021/03/21 02:11:50;;;;;;;23.70;16.58;;;;;;;1.97;100.00;101416.72;5097464;28;20143;-76
2021/03/21 02:14:33;;;;;;;23.85;17.38;;;;;;;1.89;100.00;101440.94;5097589;28;20039;-76
2021/03/21 02:17:40;;;;;;;24.88;16.83;;;;;;;1.92;100.00;101458.19;5083320;28;20075;-75
2021/03/21 02:20:40;;;;;;;23.52;15.15;;;;;;;1.98;100.00;101444.56;5077099;28;20389;-75
2021/03/21 02:23:29;;;;;;;25.70;17.73;;;;;;;1.97;100.00;101464.69;5096553;28;20096;-75
2021/03/21 02:26:17;;;;;;;24.02;16.13;;;;;;;1.96;100.00;101463.00;5081558;28;20134;-75
2021/03/21 02:29:19;;;;;;;23.20;17.02;;;;;;;1.92;100.00;101466.06;5085144;28;20041;-75
2021/03/21 02:32:00;;;;;;;23.77;17.30;;;;;;;1.98;100.00;101420.97;5092568;28;20054;-75
2021/03/21 02:34:46;;;;;;;25.15;16.55;;;;;;;1.90;100.00;101431.28;5095546;28;20099;-77
2021/03/21 02:37:21;;;;;;;25.38;17.17;;;;;;;1.86;100.00;101424.66;5092458;28;20125;-78
2021/03/21 02:39:54;;;;;;;25.60;16.85;;;;;;;1.89;100.00;101411.28;5091132;28;20031;-77
2021/03/21 02:42:29;;;;;;;27.70;17.75;;;;;;;1.96;100.00;101433.38;5100015;28;20141;-78
2021/03/21 02:45:02;;;;;;;22.27;15.88;;;;;;;1.97;100.00;101451.59;5080840;28;20118;-77
2021/03/21 02:47:30;;;;;;;28.75;18.08;;;;;;;2.02;100.00;101445.94;5103916;28;20034;-78
2021/03/21 02:50:00;;;;;;;26.23;18.33;;;;;;;1.92;100.00;101447.72;5099489;28;20054;-75
2021/03/21 02:52:38;;;;;;;28.40;17.75;;;;;;;1.98;100.00;101455.88;5097107;28;20032;-77
2021/03/21 02:55:13;;;;;;;24.95;17.63;;;;;;;1.95;100.00;101447.44;5103069;28;20027;-77
2021/03/21 02:57:47;;;;;;;25.58;17.17;;;;;;;1.98;100.00;101427.03;5103139;28;20060;-77
2021/03/21 03:01:06;;;;;;;29.23;17.73;;;;;;;1.93;100.00;101394.34;5101594;28;20479;-77
2021/03/21 03:03:33;;;;;;;26.30;17.00;;;;;;;1.96;100.00;101417.66;5083081;28;20028;-77
2021/03/21 03:06:06;;;;;;;24.95;18.13;;;;;;;1.91;100.00;101401.53;5079417;28;20036;-77
2021/03/21 03:08:46;;;;;;;25.33;16.35;;;;;;;1.65;100.00;101438.63;5081887;28;20033;-77
2021/03/21 03:11:39;;;;;;;29.73;19.20;;;;;;;1.82;100.00;101421.47;5093935;28;20040;-77
2021/03/21 03:14:09;;;;;;;28.48;17.17;;;;;;;1.91;100.00;101425.09;5079663;28;20082;-77
2021/03/21 03:17:00;;;;;;;29.02;18.60;;;;;;;2.05;100.00;101416.84;5081096;28;20029;-77
2021/03/21 03:20:04;;;;;;;30.10;17.13;;;;;;;1.98;100.00;101406.09;5078593;28;20366;-77
2021/03/21 03:22:58;;;;;;;25.60;16.50;;;;;;;1.90;100.00;101426.88;5078776;28;20074;-77
2021/03/21 03:25:33;;;;;;;25.65;16.55;;;;;;;1.92;100.00;101408.41;5075990;28;20044;-77
2021/03/21 03:28:10;;;;;;;24.65;15.30;;;;;;;1.87;100.00;101437.59;5080652;28;20032;-77
2021/03/21 03:30:53;;;;;;;25.83;16.35;;;;;;;1.87;100.00;101434.16;5072631;28;20032;-77
2021/03/21 03:33:20;;;;;;;24.08;15.48;;;;;;;1.94;100.00;101419.59;5084127;28;20039;-77
2021/03/21 03:35:46;;;;;;;38.33;20.48;;;;;;;1.78;100.00;101397.31;5101579;28;20023;-77
2021/03/21 03:38:12;;;;;;;27.95;17.50;;;;;;;1.76;100.00;101393.19;5079014;28;20032;-77
2021/03/21 03:40:40;;;;;;;26.55;16.27;;;;;;;1.80;100.00;101392.78;5084173;28;20457;-77
2021/03/21 03:43:31;;;;;;;25.92;16.50;;;;;;;1.80;100.00;101407.66;5076885;28;20040;-77
2021/03/21 03:46:08;;;;;;;32.40;18.10;;;;;;;1.83;100.00;101417.88;5080320;28;20349;-77
2021/03/21 03:48:57;;;;;;;31.98;19.10;;;;;;;1.86;100.00;101422.84;5071100;28;20393;-77
2021/03/21 03:52:04;;;;;;;31.77;18.80;;;;;;;1.80;100.00;101432.06;5079439;28;20133;-77
2021/03/21 03:54:52;;;;;;;34.88;21.27;;;;;;;1.64;100.00;101438.75;5091692;28;20027;-77
2021/03/21 03:57:41;;;;;;;40.60;24.42;;;;;;;1.76;100.00;101443.78;5095422;28;20020;-77
2021/03/21 04:00:07;;;;;;;39.50;23.52;;;;;;;1.83;100.00;101436.22;5097086;28;20453;-77
2021/03/21 04:02:50;;;;;;;35.70;21.58;;;;;;;1.87;100.00;101439.41;5091176;28;20124;-77
2021/03/21 04:05:34;;;;;;;31.75;19.30;;;;;;;1.68;100.00;101427.88;5081832;28;20028;-77
2021/03/21 04:08:33;;;;;;;34.53;20.00;;;;;;;1.69;100.00;101418.22;5101591;28;20472;-77
2021/03/21 04:11:36;;;;;;;31.95;18.35;;;;;;;1.66;100.00;101403.59;5084073;28;20117;-77
2021/03/21 04:14:10;;;;;;;;;;;;;;;1.61;100.00;101426.75;5101385;28;20020;-77
2021/03/21 04:16:57;;;;;;;29.77;18.05;;;;;;;1.59;100.00;101405.91;5087636;28;19930;-77
2021/03/21 04:19:27;;;;;;;32.75;18.65;;;;;;;1.52;100.00;101415.25;5083472;28;20029;-77
2021/03/21 04:21:58;;;;;;;38.30;20.17;;;;;;;1.49;100.00;101430.41;5096886;28;20029;-77
2021/03/21 04:24:45;;;;;;;33.83;20.58;;;;;;;1.53;100.00;101421.31;5090827;28;20103;-77
2021/03/21 04:27:20;;;;;;;33.72;19.48;;;;;;;1.31;100.00;101445.88;5088446;28;20025;-77
2021/03/21 04:29:52;;;;;;;31.70;18.13;;;;;;;1.45;100.00;101432.44;5087155;28;20037;-77
2021/03/21 04:32:22;;;;;;;49.65;27.05;;;;;;;1.50;100.00;101438.13;5085181;28;20058;-77
2021/03/21 04:34:52;;;;;;;187.60;86.63;;;;;;;1.36;100.00;101425.34;5088121;28;20082;-77
2021/03/21 04:37:19;;;;;;;160.70;74.00;;;;;;;1.45;100.00;101405.44;5082325;28;20036;-77
2021/03/21 04:39:47;;;;;;;181.18;86.57;;;;;;;1.42;100.00;101414.38;5082782;28;20029;-77
2021/03/21 04:42:21;;;;;;;217.18;102.75;;;;;;;1.53;100.00;101388.13;5084001;28;20085;-77
2021/03/21 04:44:50;;;;;;;168.40;82.75;;;;;;;1.58;100.00;101404.28;5086581;28;20152;-77
2021/03/21 04:47:19;;;;;;;139.23;73.05;;;;;;;1.64;100.00;101392.44;5102746;28;20111;-77
2021/03/21 04:49:45;;;;;;;117.88;59.22;;;;;;;1.55;100.00;101403.72;5099871;28;20031;-77
2021/03/21 04:52:43;;;;;;;86.97;47.65;;;;;;;1.66;100.00;101392.31;5099623;28;20028;-77
2021/03/21 04:55:31;;;;;;;67.00;36.40;;;;;;;1.68;100.00;101395.63;5076116;28;20475;-77
2021/03/21 04:58:00;;;;;;;44.35;27.38;;;;;;;1.68;100.00;101396.44;5085248;28;20024;-77
2021/03/21 05:00:37;;;;;;;31.10;19.35;;;;;;;1.66;100.00;101410.63;5103257;28;20024;-77
2021/03/21 05:03:32;;;;;;;33.80;19.35;;;;;;;1.73;100.00;101407.38;5091371;28;20036;-77
2021/03/21 05:06:02;;;;;;;34.60;18.80;;;;;;;1.75;100.00;101417.69;5087913;28;20121;-77
2021/03/21 05:08:35;;;;;;;47.55;25.00;;;;;;;1.78;100.00;101412.19;5103489;28;20035;-77
2021/03/21 05:11:04;;;;;;;32.42;19.20;;;;;;;1.79;100.00;101414.72;5103817;28;20503;-77
2021/03/21 05:13:38;;;;;;;30.98;20.15;;;;;;;1.82;100.00;101418.84;5086486;28;20043;-77
2021/03/21 05:16:13;;;;;;;29.85;20.85;;;;;;;1.78;100.00;101415.66;5102233;28;20035;-77
2021/03/21 05:18:47;;;;;;;90.63;38.28;;;;;;;1.80;100.00;101426.00;5093085;28;20028;-77
2021/03/21 05:21:29;;;;;;;34.83;21.73;;;;;;;1.87;100.00;101418.44;5097828;28;20093;-77
2021/03/21 05:24:04;;;;;;;25.30;17.80;;;;;;;1.84;100.00;101420.34;5098019;28;20230;-77
2021/03/21 05:26:50;;;;;;;26.25;19.65;;;;;;;1.93;100.00;101418.75;5100702;28;20100;-77
2021/03/21 05:29:45;;;;;;;31.40;24.42;;;;;;;1.91;100.00;101431.16;5083949;28;20063;-77
2021/03/21 05:32:12;;;;;;;35.47;24.55;;;;;;;1.99;100.00;101439.16;5069859;28;20064;-77
2021/03/21 05:34:38;;;;;;;33.75;26.38;;;;;;;2.03;100.00;101447.63;5088240;28;20380;-77
2021/03/21 05:37:39;;;;;;;50.30;41.53;;;;;;;2.03;100.00;101435.34;5101221;28;20031;-77
2021/03/21 05:40:46;;;;;;;36.38;27.85;;;;;;;2.10;100.00;101446.13;5100603;28;20031;-77
2021/03/21 05:43:45;;;;;;;28.20;21.15;;;;;;;2.24;100.00;101452.78;5099088;28;20034;-77
2021/03/21 05:46:48;;;;;;;42.67;33.53;;;;;;;2.45;100.00;101447.44;5101554;28;20118;-77
2021/03/21 05:49:39;;;;;;;72.10;60.53;;;;;;;2.17;100.00;101455.09;5093897;28;20431;-77
2021/03/21 05:52:26;;;;;;;47.70;36.85;;;;;;;2.16;100.00;101448.22;5101492;28;20438;-77
2021/03/21 05:55:08;;;;;;;61.20;45.22;;;;;;;2.16;100.00;101442.13;5087502;28;20100;-77
2021/03/21 05:57:54;;;;;;;58.40;43.10;;;;;;;2.23;100.00;101438.00;5100494;28;20042;-77
2021/03/21 06:00:55;;;;;;;40.55;30.48;;;;;;;2.55;100.00;101429.94;5086031;28;20046;-77
2021/03/21 06:03:57;;;;;;;39.38;30.08;;;;;;;2.37;100.00;101426.34;5074287;28;20088;-77
2021/03/21 06:07:00;;;;;;;74.70;55.63;;;;;;;2.37;100.00;101416.66;5084363;28;20032;-77
2021/03/21 06:10:00;;;;;;;56.63;42.90;;;;;;;2.35;100.00;101415.16;5085448;28;20354;-77
2021/03/21 06:12:56;;;;;;;47.08;31.52;;;;;;;2.41;100.00;101419.84;5089487;28;20385;-77
2021/03/21 06:15:43;;;;;;;39.53;30.35;;;;;;;2.41;100.00;101420.66;5095111;28;20039;-77
2021/03/21 06:18:22;;;;;;;39.60;27.15;;;;;;;2.37;100.00;101424.53;5091312;28;20471;-77
2021/03/21 06:20:58;;;;;;;90.97;56.53;;;;;;;2.40;100.00;101424.25;5078334;28;20432;-77
2021/03/21 06:23:31;;;;;;;58.60;42.45;;;;;;;2.49;100.00;101418.22;5106575;28;20560;-77
2021/03/21 06:26:09;;;;;;;42.83;30.25;;;;;;;2.47;100.00;101414.06;5103381;28;20043;-77
2021/03/21 06:29:12;;;;;;;34.63;25.05;;;;;;;2.45;100.00;101408.97;5103019;28;20023;-77
2021/03/21 06:31:56;;;;;;;41.47;28.65;;;;;;;2.53;100.00;101411.72;5102658;28;20031;-78
2021/03/21 06:34:22;;;;;;;40.28;25.85;;;;;;;2.65;100.00;101406.34;5100393;28;20476;-77
2021/03/21 06:37:22;;;;;;;41.15;31.27;;;;;;;2.55;100.00;101411.59;5081070;28;20028;-77
2021/03/21 06:40:01;;;;;;;45.15;30.45;;;;;;;2.62;100.00;101409.25;5068216;28;20036;-77
2021/03/21 06:42:39;;;;;;;38.72;25.95;;;;;;;2.60;100.00;101398.88;5091735;28;20035;-77
2021/03/21 06:45:47;;;;;;;59.58;40.97;;;;;;;2.84;100.00;101395.03;5090536;28;20039;-77
2021/03/21 06:48:31;;;;;;;48.70;36.47;;;;;;;2.88;100.00;101402.50;5094355;28;20065;-78
2021/03/21 06:51:27;;;;;;;35.92;24.98;;;;;;;2.75;100.00;101394.91;5082288;28;20063;-77
2021/03/21 06:54:17;;;;;;;44.65;34.15;;;;;;;2.84;100.00;101397.63;5095012;28;20024;-77
2021/03/21 06:57:04;;;;;;;32.00;22.30;;;;;;;2.86;100.00;101395.72;5090381;28;20035;-78
2021/03/21 06:59:54;;;;;;;37.60;24.33;;;;;;;2.98;100.00;101400.69;5081756;28;20033;-77
2021/03/21 07:03:05;;;;;;;30.23;20.98;;;;;;;2.93;100.00;101396.81;5072063;28;20483;-77
2021/03/21 07:06:07;;;;;;;31.83;23.08;;;;;;;3.02;100.00;101398.59;5022995;28;20112;-77
2021/03/21 07:09:00;;;;;;;52.80;41.13;;;;;;;2.95;100.00;101397.50;5034647;28;20024;-77
2021/03/21 07:11:43;;;;;;;53.13;43.00;;;;;;;3.15;100.00;101398.31;5074829;28;20055;-75
2021/03/21 07:14:33;;;;;;;32.85;26.27;;;;;;;3.26;100.00;101407.81;5098841;28;20029;-75
2021/03/21 07:17:13;;;;;;;41.83;33.35;;;;;;;3.24;100.00;101405.34;5081683;28;20370;-75
2021/03/21 07:20:08;;;;;;;40.72;35.13;;;;;;;3.33;100.00;101408.91;5088300;28;20074;-75
2021/03/21 07:22:58;;;;;;;29.52;23.55;;;;;;;3.16;100.00;101390.28;5082511;28;20039;-75
2021/03/21 07:25:46;;;;;;;26.20;21.88;;;;;;;3.22;100.00;101396.78;5080755;28;20035;-75
2021/03/21 07:28:32;;;;;;;31.83;24.98;;;;;;;3.19;100.00;101381.31;5095681;28;20031;-75
2021/03/21 07:31:11;;;;;;;39.55;32.25;;;;;;;3.30;100.00;101378.53;5084556;28;20050;-75
2021/03/21 07:33:53;;;;;;;45.28;33.45;;;;;;;3.74;100.00;101385.84;5073608;28;20036;-75
2021/03/21 07:36:26;;;;;;;64.35;52.90;;;;;;;3.65;100.00;101384.91;5080684;28;20111;-75
2021/03/21 07:39:10;;;;;;;31.13;24.83;;;;;;;3.36;100.00;101395.50;5085069;28;20477;-75
2021/03/21 07:41:47;;;;;;;85.05;54.88;;;;;;;3.47;100.00;101389.25;5081900;28;21069;-75
2021/03/21 07:44:27;;;;;;;114.88;62.00;;;;;;;3.89;100.00;101387.00;5081694;28;20425;-76
2021/03/21 07:47:16;;;;;;;69.70;47.78;;;;;;;3.90;100.00;101388.66;5084625;28;20071;-75
2021/03/21 07:49:50;;;;;;;81.93;52.08;;;;;;;3.76;100.00;101383.91;5081428;28;20476;-76
2021/03/21 07:52:25;;;;;;;39.00;32.20;;;;;;;3.80;100.00;101382.63;5082250;28;20028;-76
2021/03/21 07:55:01;;;;;;;42.00;33.17;;;;;;;3.64;100.00;101378.00;5104849;28;20028;-75
2021/03/21 07:57:51;;;;;;;75.53;52.35;;;;;;;3.79;100.00;101378.34;5087113;28;20036;-75
2021/03/21 08:00:18;;;;;;;50.97;38.22;;;;;;;3.86;100.00;101388.13;5087205;28;20059;-75
2021/03/21 08:02:43;;;;;;;53.13;43.50;;;;;;;3.86;100.00;101395.19;5075646;28;20519;-75
2021/03/21 08:05:16;;;;;;;31.15;24.75;;;;;;;3.72;100.00;101395.66;5107186;28;20027;-75
2021/03/21 08:07:44;;;;;;;60.40;43.70;;;;;;;3.90;100.00;101399.16;5106837;28;20024;-75
2021/03/21 08:10:17;;;;;;;41.03;29.05;;;;;;;3.89;100.00;101393.09;5101717;28;20357;-75
2021/03/21 08:12:52;;;;;;;40.03;34.63;;;;;;;3.86;100.00;101388.13;5092927;28;20050;-76
2021/03/21 08:15:28;;;;;;;38.13;29.83;;;;;;;4.01;100.00;101380.59;5096212;28;20031;-75
2021/03/21 08:18:01;;;;;;;26.15;22.70;;;;;;;4.77;100.00;101382.00;5101015;28;20031;-76
2021/03/21 08:20:31;;;;;;;43.33;32.75;;;;;;;4.12;100.00;101374.31;5106858;28;20031;-75
2021/03/21 08:23:26;;;;;;;40.95;35.88;;;;;;;4.18;100.00;101370.28;5104789;28;20122;-76
2021/03/21 08:25:54;;;;;;;45.08;32.72;;;;;;;4.54;100.00;101377.22;5086682;28;20459;-76
2021/03/21 08:28:23;;;;;;;30.83;27.15;;;;;;;4.37;100.00;101370.13;5102719;28;20039;-75
2021/03/21 08:30:59;;;;;;;28.98;25.63;;;;;;;4.32;100.00;101362.66;5083317;28;20119;-75
2021/03/21 08:33:35;;;;;;;43.17;31.50;;;;;;;4.45;100.00;101356.22;5093642;28;20418;-75
2021/03/21 08:36:15;;;;;;;32.08;24.40;;;;;;;4.36;100.00;101357.97;5085241;28;20050;-75
2021/03/21 08:38:59;;;;;;;40.92;31.63;;;;;;;4.50;100.00;101353.97;5101024;28;20038;-75
2021/03/21 08:41:27;;;;;;;37.45;30.05;;;;;;;4.55;100.00;101347.28;5102129;28;20031;-75
2021/03/21 08:44:33;;;;;;;35.08;28.33;;;;;;;4.61;100.00;101347.66;5086137;28;20073;-75
2021/03/21 08:47:00;;;;;;;41.33;34.25;;;;;;;4.72;100.00;101343.00;5084137;28;20121;-75
2021/03/21 08:49:33;;;;;;;30.95;28.23;;;;;;;4.82;100.00;101343.72;5086644;28;20460;-75
2021/03/21 08:51:59;;;;;;;34.78;28.27;;;;;;;4.90;100.00;101332.44;5102526;28;20085;-75
2021/03/21 08:54:36;;;;;;;44.65;40.38;;;;;;;4.93;100.00;101326.88;5101662;28;20108;-76
2021/03/21 08:57:09;;;;;;;44.88;40.72;;;;;;;4.78;100.00;101341.53;5089291;28;20063;-76
2021/03/21 08:59:43;;;;;;;45.50;41.20;;;;;;;4.75;100.00;101329.53;5092526;28;20482;-76
2021/03/21 09:02:17;;;;;;;51.03;45.22;;;;;;;4.87;100.00;101322.22;5100167;28;20388;-76
2021/03/21 09:04:47;;;;;;;52.28;45.08;;;;;;;5.04;100.00;101329.22;5089682;28;20110;-76
2021/03/21 09:07:28;;;;;;;54.53;48.92;;;;;;;5.03;100.00;101324.13;5084235;28;20540;-75
2021/03/21 09:10:15;;;;;;;51.92;46.65;;;;;;;5.03;100.00;101318.88;5095050;28;20381;-76
2021/03/21 09:12:44;;;;;;;48.33;43.72;;;;;;;5.05;100.00;101315.09;5095469;28;20090;-75
2021/03/21 09:15:18;;;;;;;50.03;45.22;;;;;;;5.07;100.00;101319.38;5094934;28;20036;-75
2021/03/21 09:18:10;;;;;;;52.38;46.70;;;;;;;5.16;100.00;101314.00;5081978;28;20055;-76
2021/03/21 09:20:36;;;;;;;56.08;47.53;;;;;;;5.16;100.00;101308.72;5081366;28;20033;-76
2021/03/21 09:23:28;;;;;;;48.75;44.33;;;;;;;5.21;100.00;101300.38;5088085;28;20473;-75
2021/03/21 09:25:56;;;;;;;56.72;49.08;;;;;;;5.60;100.00;101308.63;5103886;28;20024;-76
2021/03/21 09:28:24;;;;;;;56.80;50.85;;;;;;;5.30;100.00;101291.53;5105139;28;20023;-76
2021/03/21 09:30:50;;;;;;;56.67;50.83;;;;;;;5.35;100.00;101285.78;5098991;28;20059;-75
2021/03/21 09:33:24;;;;;;;55.28;49.75;;;;;;;5.42;100.00;101282.38;5097366;28;20070;-76
2021/03/21 09:36:21;;;;;;;48.10;43.97;;;;;;;5.26;100.00;101277.84;5086477;28;20039;-76
2021/03/21 09:38:57;;;;;;;49.45;44.75;;;;;;;5.32;100.00;101272.91;5080998;28;20024;-75
2021/03/21 09:41:23;;;;;;;55.75;49.95;;;;;;;5.41;100.00;101271.97;5084159;28;20526;-76
2021/03/21 09:43:49;;;;;;;55.38;49.47;;;;;;;5.50;100.00;101263.94;5105519;28;20116;-76
2021/03/21 09:46:48;;;;;;;54.78;49.13;;;;;;;5.54;100.00;101258.34;5103924;28;20089;-76
2021/03/21 09:49:17;;;;;;;63.10;56.95;;;;;;;5.45;100.00;101268.88;5094714;28;20074;-75
2021/03/21 09:51:53;;;;;;;64.63;58.03;;;;;;;5.46;100.00;101277.59;5104187;28;20020;-75
2021/03/21 09:54:18;;;;;;;63.55;57.58;;;;;;;5.51;100.00;101265.59;5088333;28;20111;-75
2021/03/21 09:57:02;;;;;;;75.25;67.15;;;;;;;5.81;100.00;101271.31;5092926;28;20123;-75
2021/03/21 09:59:56;;;;;;;62.78;56.63;;;;;;;5.80;100.00;101268.81;5084079;28;20087;-75
2021/03/21 10:02:43;;;;;;;65.88;59.15;;;;;;;5.88;100.00;101267.03;5075997;28;20035;-76
2021/03/21 10:05:53;;;;;;;61.67;55.75;;;;;;;5.92;100.00;101275.44;5104782;28;20032;-76
2021/03/21 10:08:19;;;;;;;62.53;56.60;;;;;;;5.71;100.00;101258.25;5087808;28;20044;-75
2021/03/21 10:11:03;;;;;;;70.75;63.85;;;;;;;6.10;100.00;101247.13;5105420;28;20464;-76
2021/03/21 10:13:46;;;;;;;60.35;54.72;;;;;;;6.24;100.00;101250.13;5104057;28;20027;-75
2021/03/21 10:16:15;;;;;;;61.90;55.85;;;;;;;6.53;100.00;101253.06;5081362;28;20016;-76
2021/03/21 10:18:46;;;;;;;59.05;53.65;;;;;;;5.96;100.00;101242.50;5091933;28;20066;-75
2021/03/21 10:21:24;;;;;;;64.32;58.88;;;;;;;6.40;100.00;101242.22;5085094;28;20020;-76
2021/03/21 10:23:49;;;;;;;63.75;57.70;;;;;;;6.35;100.00;101242.69;5101897;28;20107;-76
2021/03/21 10:26:18;;;;;;;51.42;46.55;;;;;;;6.46;100.00;101241.53;5085335;28;20198;-76
2021/03/21 10:29:09;;;;;;;51.90;47.15;;;;;;;6.29;100.00;101243.34;5082115;28;20032;-75
2021/03/21 10:31:37;;;;;;;53.03;48.08;;;;;;;6.19;100.00;101240.06;5082242;28;20359;-76
2021/03/21 10:34:02;;;;;;;48.38;44.08;;;;;;;6.39;100.00;101233.47;5075719;28;20031;-76
2021/03/21 10:36:43;;;;;;;49.85;45.08;;;;;;;6.22;100.00;101233.63;5081980;28;20082;-75
2021/03/21 10:39:23;;;;;;;50.22;45.63;;;;;;;6.29;100.00;101216.16;5103638;28;20388;-76
2021/03/21 10:42:08;;;;;;;48.33;44.05;;;;;;;6.31;100.00;101216.81;5103136;28;20035;-76
2021/03/21 10:44:37;;;;;;;44.10;40.40;;;;;;;6.56;100.00;101213.16;5103366;28;20392;-75
2021/03/21 10:47:10;;;;;;;49.65;45.35;;;;;;;6.59;100.00;101209.34;5102087;28;20449;-76
2021/03/21 10:49:56;;;;;;;46.70;42.67;;;;;;;6.12;100.00;101200.34;5087185;28;20046;-76
2021/03/21 10:52:26;;;;;;;43.08;39.60;;;;;;;6.28;100.00;101204.78;5089421;28;20024;-76
2021/03/21 10:55:10;;;;;;;63.17;57.47;;;;;;;6.52;100.00;101196.00;5102744;28;20023;-76
2021/03/21 10:57:44;;;;;;;52.42;48.13;;;;;;;6.67;100.00;101197.97;5100775;28;20118;-76
2021/03/21 11:00:15;;;;;;;57.38;52.10;;;;;;;6.53;100.00;101191.56;5087229;28;20447;-76
2021/03/21 11:02:48;;;;;;;58.03;52.95;;;;;;;6.93;100.00;101181.88;5072656;28;20514;-76
2021/03/21 11:05:27;;;;;;;61.95;55.92;;;;;;;6.87;100.00;101184.22;5104740;28;20024;-76
2021/03/21 11:08:11;;;;;;;55.38;49.97;;;;;;;6.74;100.00;101180.47;5083604;28;20021;-76
2021/03/21 11:10:52;;;;;;;56.80;51.30;;;;;;;6.73;100.00;101181.47;5101304;28;20126;-76
2021/03/21 11:13:36;;;;;;;55.70;50.30;;;;;;;6.38;100.00;101178.22;5094076;28;20028;-76
2021/03/21 11:16:19;;;;;;;72.13;57.38;;;;;;;6.39;100.00;101171.97;5083647;28;20020;-76
2021/03/21 11:18:51;;;;;;;64.47;56.65;;;;;;;6.62;100.00;101174.72;5077384;28;20444;-75
2021/03/21 11:21:17;;;;;;;69.68;57.30;;;;;;;6.46;100.00;101170.28;5094504;28;20092;-75
2021/03/21 11:24:00;;;;;;;55.95;50.40;;;;;;;6.82;100.00;101172.53;5081246;28;20123;-75
2021/03/21 11:26:26;;;;;;;60.30;53.78;;;;;;;6.78;100.00;101160.66;5099319;28;20029;-75
2021/03/21 11:28:53;;;;;;;55.55;50.15;;;;;;;6.77;100.00;101149.25;5084438;28;20103;-76
2021/03/21 11:31:51;;;;;;;59.72;53.50;;;;;;;6.79;100.00;101157.03;5101166;28;20376;-76
2021/03/21 11:34:27;;;;;;;62.20;55.65;;;;;;;6.71;100.00;101159.69;5078979;28;20036;-76
2021/03/21 11:37:30;;;;;;;59.38;53.28;;;;;;;6.85;100.00;101145.78;5083658;28;20050;-76
2021/03/21 11:39:58;;;;;;;61.80;55.28;;;;;;;6.29;100.00;101153.66;5041726;28;20033;-76
2021/03/21 11:42:26;;;;;;;58.83;52.75;;;;;;;6.19;100.00;101153.84;5085087;28;20031;-75
2021/03/21 11:44:54;;;;;;;59.78;53.28;;;;;;;6.07;100.00;101147.25;5101502;28;20032;-75
2021/03/21 11:47:31;;;;;;;55.05;49.88;;;;;;;5.90;100.00;101137.66;5101234;28;20526;-76
2021/03/21 11:49:59;;;;;;;54.35;49.22;;;;;;;5.81;100.00;101133.38;5097705;28;20032;-76
2021/03/21 11:52:26;;;;;;;56.78;51.25;;;;;;;5.97;100.00;101120.25;5095684;28;20089;-76
2021/03/21 11:54:53;;;;;;;70.15;59.38;;;;;;;5.86;100.00;101110.81;5085775;28;20438;-76
2021/03/21 11:57:43;;;;;;;86.43;71.82;;;;;;;5.96;100.00;101108.03;5082306;28;20473;-76